sensor_id;sensor_type;location;lat;lon;timestamp;pressure;altitude;pressure_sealevel;temperature;humidity
5126;BME280;63008;53.112;8.896;2022-12-01T00:00:37;102741.72;;;5.41;91.53
5126;BME280;63008;53.112;8.896;2022-12-01T00:02:38;102748.16;;;5.35;91.89
5126;BME280;63008;53.112;8.896;2022-12-01T00:04:38;102749.50;;;5.32;91.91
5126;BME280;63008;53.112;8.896;2022-12-01T00:06:40;102741.84;;;5.51;92.13
5126;BME280;63008;53.112;8.896;2022-12-01T00:08:42;102738.63;;;5.54;91.34
5126;BME280;63008;53.112;8.896;2022-12-01T00:11:08;102739.34;;;5.66;91.15
5126;BME280;63008;53.112;8.896;2022-12-01T00:13:09;102741.72;;;5.41;90.98
5126;BME280;63008;53.112;8.896;2022-12-01T00:15:11;102741.25;;;5.28;91.58
5126;BME280;63008;53.112;8.896;2022-12-01T00:17:12;102741.06;;;5.34;91.91
5126;BME280;63008;53.112;8.896;2022-12-01T00:19:13;102737.09;;;5.41;91.59
5126;BME280;63008;53.112;8.896;2022-12-01T00:21:16;102735.63;;;5.34;91.55
5126;BME280;63008;53.112;8.896;2022-12-01T00:23:17;102738.44;;;5.23;91.73
5126;BME280;63008;53.112;8.896;2022-12-01T00:25:18;102743.97;;;5.28;91.95
5126;BME280;63008;53.112;8.896;2022-12-01T00:27:20;102742.47;;;5.36;92.21
5126;BME280;63008;53.112;8.896;2022-12-01T00:29:21;102743.09;;;5.43;91.76
5126;BME280;63008;53.112;8.896;2022-12-01T00:31:22;102742.69;;;5.51;91.40
5126;BME280;63008;53.112;8.896;2022-12-01T00:33:23;102740.59;;;5.58;91.20
5126;BME280;63008;53.112;8.896;2022-12-01T00:35:24;102741.50;;;5.64;90.91
5126;BME280;63008;53.112;8.896;2022-12-01T00:37:28;102746.19;;;5.68;90.74
5126;BME280;63008;53.112;8.896;2022-12-01T00:39:29;102743.09;;;5.60;90.68
5126;BME280;63008;53.112;8.896;2022-12-01T00:41:30;102740.03;;;5.56;90.69
5126;BME280;63008;53.112;8.896;2022-12-01T00:43:31;102738.16;;;5.40;91.29
5126;BME280;63008;53.112;8.896;2022-12-01T00:45:32;102741.06;;;5.34;91.76
5126;BME280;63008;53.112;8.896;2022-12-01T00:47:33;102745.44;;;5.35;91.78
5126;BME280;63008;53.112;8.896;2022-12-01T00:49:34;102745.19;;;5.36;92.16
5126;BME280;63008;53.112;8.896;2022-12-01T00:51:35;102747.91;;;5.36;92.07
5126;BME280;63008;53.112;8.896;2022-12-01T00:53:36;102746.91;;;5.42;91.84
5126;BME280;63008;53.112;8.896;2022-12-01T00:55:37;102749.00;;;5.35;91.98
5126;BME280;63008;53.112;8.896;2022-12-01T00:57:39;102756.81;;;5.32;91.92
5126;BME280;63008;53.112;8.896;2022-12-01T00:59:40;102751.88;;;5.29;92.26
5126;BME280;63008;53.112;8.896;2022-12-01T01:01:41;102754.84;;;5.28;92.48
5126;BME280;63008;53.112;8.896;2022-12-01T01:03:43;102748.50;;;5.38;92.47
5126;BME280;63008;53.112;8.896;2022-12-01T01:05:44;102748.31;;;5.45;92.32
5126;BME280;63008;53.112;8.896;2022-12-01T01:07:45;102763.41;;;5.36;92.16
5126;BME280;63008;53.112;8.896;2022-12-01T01:09:46;102751.88;;;5.29;92.39
5126;BME280;63008;53.112;8.896;2022-12-01T01:11:47;102756.25;;;5.30;92.42
5126;BME280;63008;53.112;8.896;2022-12-01T01:13:48;102753.41;;;5.20;92.74
5126;BME280;63008;53.112;8.896;2022-12-01T01:16:01;102757.56;;;5.28;92.86
5126;BME280;63008;53.112;8.896;2022-12-01T01:18:03;102753.47;;;5.25;93.07
5126;BME280;63008;53.112;8.896;2022-12-01T01:20:05;102757.91;;;5.31;92.75
5126;BME280;63008;53.112;8.896;2022-12-01T01:22:06;102755.50;;;5.34;92.38
5126;BME280;63008;53.112;8.896;2022-12-01T01:24:10;102747.19;;;5.25;92.72
5126;BME280;63008;53.112;8.896;2022-12-01T01:26:24;102752.63;;;5.25;92.81
5126;BME280;63008;53.112;8.896;2022-12-01T01:28:25;102751.41;;;5.16;93.10
5126;BME280;63008;53.112;8.896;2022-12-01T01:30:26;102757.94;;;5.15;93.43
5126;BME280;63008;53.112;8.896;2022-12-01T01:32:27;102755.09;;;5.10;93.43
5126;BME280;63008;53.112;8.896;2022-12-01T01:34:28;102753.56;;;5.14;93.79
5126;BME280;63008;53.112;8.896;2022-12-01T01:36:29;102762.59;;;5.19;93.64
5126;BME280;63008;53.112;8.896;2022-12-01T01:38:31;102757.09;;;5.31;93.33
5126;BME280;63008;53.112;8.896;2022-12-01T01:40:32;102760.06;;;5.29;93.09
5126;BME280;63008;53.112;8.896;2022-12-01T01:42:33;102755.25;;;5.36;92.74
5126;BME280;63008;53.112;8.896;2022-12-01T01:44:52;102761.41;;;5.48;92.75
5126;BME280;63008;53.112;8.896;2022-12-01T01:46:53;102761.19;;;5.49;92.27
5126;BME280;63008;53.112;8.896;2022-12-01T01:49:05;102765.19;;;5.63;92.10
5126;BME280;63008;53.112;8.896;2022-12-01T01:51:08;102770.38;;;5.65;91.71
5126;BME280;63008;53.112;8.896;2022-12-01T01:53:12;102769.97;;;5.56;91.92
5126;BME280;63008;53.112;8.896;2022-12-01T01:55:14;102768.41;;;5.60;91.80
5126;BME280;63008;53.112;8.896;2022-12-01T01:57:19;102767.03;;;5.58;91.46
5126;BME280;63008;53.112;8.896;2022-12-01T01:59:25;102767.13;;;5.46;91.28
5126;BME280;63008;53.112;8.896;2022-12-01T02:01:29;102768.34;;;5.55;91.61
5126;BME280;63008;53.112;8.896;2022-12-01T02:03:31;102764.47;;;5.51;91.18
5126;BME280;63008;53.112;8.896;2022-12-01T02:05:33;102768.63;;;5.37;91.67
5126;BME280;63008;53.112;8.896;2022-12-01T02:07:36;102767.00;;;5.20;92.34
5126;BME280;63008;53.112;8.896;2022-12-01T02:09:37;102769.72;;;5.20;92.62
5126;BME280;63008;53.112;8.896;2022-12-01T02:11:55;102769.47;;;5.22;92.65
5126;BME280;63008;53.112;8.896;2022-12-01T02:14:09;102774.66;;;5.23;92.86
5126;BME280;63008;53.112;8.896;2022-12-01T02:16:33;102764.81;;;5.38;92.75
5126;BME280;63008;53.112;8.896;2022-12-01T02:31:01;102763.84;;;5.28;92.00
5126;BME280;63008;53.112;8.896;2022-12-01T02:33:18;102767.56;;;5.22;92.43
5126;BME280;63008;53.112;8.896;2022-12-01T02:35:35;102769.53;;;5.27;92.41
5126;BME280;63008;53.112;8.896;2022-12-01T02:37:58;102761.19;;;5.33;91.94
5126;BME280;63008;53.112;8.896;2022-12-01T02:40:28;102767.97;;;5.31;91.76
5126;BME280;63008;53.112;8.896;2022-12-01T02:45:04;102770.84;;;5.40;91.10
5126;BME280;63008;53.112;8.896;2022-12-01T02:47:14;102772.84;;;5.29;91.51
5126;BME280;63008;53.112;8.896;2022-12-01T02:49:20;102762.66;;;5.40;91.69
5126;BME280;63008;53.112;8.896;2022-12-01T02:51:26;102775.88;;;5.48;91.57
5126;BME280;63008;53.112;8.896;2022-12-01T02:53:28;102772.88;;;5.50;91.28
5126;BME280;63008;53.112;8.896;2022-12-01T02:55:29;102771.06;;;5.55;91.13
5126;BME280;63008;53.112;8.896;2022-12-01T02:57:33;102775.13;;;5.36;91.56
5126;BME280;63008;53.112;8.896;2022-12-01T02:59:34;102773.66;;;5.29;91.78
5126;BME280;63008;53.112;8.896;2022-12-01T03:05:57;102766.25;;;5.08;93.29
5126;BME280;63008;53.112;8.896;2022-12-01T03:10:57;102769.47;;;5.22;93.32
5126;BME280;63008;53.112;8.896;2022-12-01T03:13:16;102766.06;;;5.31;92.93
5126;BME280;63008;53.112;8.896;2022-12-01T03:15:30;102761.59;;;5.41;92.88
5126;BME280;63008;53.112;8.896;2022-12-01T03:17:55;102763.00;;;5.44;92.90
5126;BME280;63008;53.112;8.896;2022-12-01T03:20:05;102764.53;;;5.56;92.64
5126;BME280;63008;53.112;8.896;2022-12-01T03:22:17;102761.56;;;5.58;91.99
5126;BME280;63008;53.112;8.896;2022-12-01T03:24:25;102762.91;;;5.55;91.72
5126;BME280;63008;53.112;8.896;2022-12-01T03:26:29;102766.28;;;5.46;91.96
5126;BME280;63008;53.112;8.896;2022-12-01T03:28:34;102767.59;;;5.43;92.26
5126;BME280;63008;53.112;8.896;2022-12-01T03:30:36;102766.34;;;5.51;92.03
5126;BME280;63008;53.112;8.896;2022-12-01T03:32:42;102764.31;;;5.41;91.92
5126;BME280;63008;53.112;8.896;2022-12-01T03:35:07;102760.63;;;5.47;92.07
5126;BME280;63008;53.112;8.896;2022-12-01T03:37:20;102768.28;;;5.50;91.68
5126;BME280;63008;53.112;8.896;2022-12-01T03:39:28;102761.25;;;5.54;91.71
5126;BME280;63008;53.112;8.896;2022-12-01T03:41:36;102761.50;;;5.53;91.52
5126;BME280;63008;53.112;8.896;2022-12-01T03:43:41;102762.00;;;5.50;91.60
5126;BME280;63008;53.112;8.896;2022-12-01T03:45:52;102757.56;;;5.44;91.73
5126;BME280;63008;53.112;8.896;2022-12-01T03:47:55;102763.19;;;5.37;91.76
5126;BME280;63008;53.112;8.896;2022-12-01T03:49:57;102761.19;;;5.33;92.01
5126;BME280;63008;53.112;8.896;2022-12-01T03:56:54;102766.56;;;5.28;92.30
5126;BME280;63008;53.112;8.896;2022-12-01T03:58:59;102761.63;;;5.25;92.26
5126;BME280;63008;53.112;8.896;2022-12-01T04:01:02;102764.00;;;5.38;92.22
5126;BME280;63008;53.112;8.896;2022-12-01T04:03:04;102756.25;;;5.46;91.93
5126;BME280;63008;53.112;8.896;2022-12-01T04:05:05;102763.34;;;5.47;91.78
5126;BME280;63008;53.112;8.896;2022-12-01T04:07:09;102759.59;;;5.53;91.50
5126;BME280;63008;53.112;8.896;2022-12-01T04:09:13;102775.38;;;5.51;91.33
5126;BME280;63008;53.112;8.896;2022-12-01T04:11:14;102767.53;;;5.38;91.58
5126;BME280;63008;53.112;8.896;2022-12-01T04:13:34;102767.31;;;5.40;91.81
5126;BME280;63008;53.112;8.896;2022-12-01T04:15:35;102765.22;;;5.47;91.65
5126;BME280;63008;53.112;8.896;2022-12-01T04:17:36;102773.63;;;5.45;91.38
5126;BME280;63008;53.112;8.896;2022-12-01T04:19:37;102774.63;;;5.39;91.61
5126;BME280;63008;53.112;8.896;2022-12-01T04:21:38;102775.88;;;5.48;91.31
5126;BME280;63008;53.112;8.896;2022-12-01T04:23:39;102773.63;;;5.45;90.95
5126;BME280;63008;53.112;8.896;2022-12-01T04:26:00;102779.75;;;5.36;91.36
5126;BME280;63008;53.112;8.896;2022-12-01T04:28:01;102777.63;;;5.38;91.60
5126;BME280;63008;53.112;8.896;2022-12-01T04:30:04;102784.88;;;5.32;91.26
5126;BME280;63008;53.112;8.896;2022-12-01T04:32:06;102783.25;;;5.32;91.80
5126;BME280;63008;53.112;8.896;2022-12-01T04:34:08;102783.06;;;5.38;91.64
5126;BME280;63008;53.112;8.896;2022-12-01T04:36:09;102778.19;;;5.24;91.91
5126;BME280;63008;53.112;8.896;2022-12-01T04:38:10;102776.97;;;5.15;91.94
5126;BME280;63008;53.112;8.896;2022-12-01T04:40:11;102780.91;;;5.24;92.19
5126;BME280;63008;53.112;8.896;2022-12-01T04:42:12;102776.72;;;5.32;92.08
5126;BME280;63008;53.112;8.896;2022-12-01T04:44:14;102782.81;;;5.39;91.38
5126;BME280;63008;53.112;8.896;2022-12-01T04:46:15;102775.22;;;5.41;91.36
5126;BME280;63008;53.112;8.896;2022-12-01T04:48:16;102774.75;;;5.28;91.00
5126;BME280;63008;53.112;8.896;2022-12-01T04:50:17;102778.19;;;5.24;91.51
5126;BME280;63008;53.112;8.896;2022-12-01T04:52:18;102779.16;;;5.34;91.97
5126;BME280;63008;53.112;8.896;2022-12-01T04:54:19;102774.00;;;5.32;91.15
5126;BME280;63008;53.112;8.896;2022-12-01T04:56:20;102775.72;;;5.38;91.35
5126;BME280;63008;53.112;8.896;2022-12-01T04:58:21;102775.38;;;5.35;91.15
5126;BME280;63008;53.112;8.896;2022-12-01T05:00:23;102779.03;;;5.24;91.24
5126;BME280;63008;53.112;8.896;2022-12-01T05:02:24;102784.97;;;5.21;91.20
5126;BME280;63008;53.112;8.896;2022-12-01T05:04:25;102783.13;;;5.27;91.57
5126;BME280;63008;53.112;8.896;2022-12-01T05:06:27;102785.78;;;5.22;91.21
5126;BME280;63008;53.112;8.896;2022-12-01T05:08:28;102780.78;;;5.14;91.39
5126;BME280;63008;53.112;8.896;2022-12-01T05:10:29;102783.00;;;5.17;91.86
5126;BME280;63008;53.112;8.896;2022-12-01T05:12:30;102782.66;;;5.30;91.41
5126;BME280;63008;53.112;8.896;2022-12-01T05:14:31;102786.03;;;5.36;90.87
5126;BME280;63008;53.112;8.896;2022-12-01T05:16:32;102783.06;;;5.38;90.71
5126;BME280;63008;53.112;8.896;2022-12-01T05:18:34;102781.41;;;5.37;90.24
5126;BME280;63008;53.112;8.896;2022-12-01T05:20:35;102786.19;;;5.30;91.02
5126;BME280;63008;53.112;8.896;2022-12-01T05:22:57;102786.88;;;5.21;91.05
5126;BME280;63008;53.112;8.896;2022-12-01T05:24:59;102786.72;;;5.11;91.49
5126;BME280;63008;53.112;8.896;2022-12-01T05:27:00;102788.75;;;5.04;91.79
5126;BME280;63008;53.112;8.896;2022-12-01T05:29:01;102791.09;;;5.12;92.00
5126;BME280;63008;53.112;8.896;2022-12-01T05:31:02;102789.75;;;5.14;91.75
5126;BME280;63008;53.112;8.896;2022-12-01T05:33:03;102798.41;;;5.11;91.41
5126;BME280;63008;53.112;8.896;2022-12-01T05:35:05;102792.47;;;5.14;91.31
5126;BME280;63008;53.112;8.896;2022-12-01T05:37:06;102798.00;;;5.03;91.53
5126;BME280;63008;53.112;8.896;2022-12-01T05:39:07;102790.09;;;5.18;91.57
5126;BME280;63008;53.112;8.896;2022-12-01T05:41:09;102798.59;;;5.21;91.37
5126;BME280;63008;53.112;8.896;2022-12-01T05:43:10;102801.78;;;5.18;90.63
5126;BME280;63008;53.112;8.896;2022-12-01T05:45:11;102798.31;;;5.23;90.90
5126;BME280;63008;53.112;8.896;2022-12-01T05:47:12;102802.59;;;5.35;91.33
5126;BME280;63008;53.112;8.896;2022-12-01T05:49:13;102801.78;;;5.34;90.88
5126;BME280;63008;53.112;8.896;2022-12-01T05:51:15;102801.28;;;5.37;90.93
5126;BME280;63008;53.112;8.896;2022-12-01T05:53:18;102799.97;;;5.40;90.81
5126;BME280;63008;53.112;8.896;2022-12-01T05:55:19;102798.81;;;5.36;90.89
5126;BME280;63008;53.112;8.896;2022-12-01T05:57:20;102797.25;;;5.40;90.56
5126;BME280;63008;53.112;8.896;2022-12-01T05:59:21;102797.38;;;5.50;90.43
5126;BME280;63008;53.112;8.896;2022-12-01T06:01:22;102801.19;;;5.49;89.82
5126;BME280;63008;53.112;8.896;2022-12-01T06:03:23;102804.66;;;5.44;89.67
5126;BME280;63008;53.112;8.896;2022-12-01T06:05:24;102805.41;;;5.24;90.56
5126;BME280;63008;53.112;8.896;2022-12-01T06:07:25;102811.34;;;5.21;91.03
5126;BME280;63008;53.112;8.896;2022-12-01T06:09:26;102807.56;;;5.22;91.00
5126;BME280;63008;53.112;8.896;2022-12-01T06:11:27;102808.88;;;5.19;90.90
5126;BME280;63008;53.112;8.896;2022-12-01T06:13:28;102807.47;;;5.17;91.68
5126;BME280;63008;53.112;8.896;2022-12-01T06:15:28;102809.22;;;5.23;91.44
5126;BME280;63008;53.112;8.896;2022-12-01T06:17:29;102805.53;;;5.29;91.30
5126;BME280;63008;53.112;8.896;2022-12-01T06:19:30;102806.81;;;5.42;91.10
5126;BME280;63008;53.112;8.896;2022-12-01T06:21:31;102798.97;;;5.46;90.39
5126;BME280;63008;53.112;8.896;2022-12-01T06:23:33;102808.81;;;5.31;90.57
5126;BME280;63008;53.112;8.896;2022-12-01T06:25:34;102804.91;;;5.27;90.85
5126;BME280;63008;53.112;8.896;2022-12-01T06:27:35;102810.72;;;5.14;91.28
5126;BME280;63008;53.112;8.896;2022-12-01T06:29:36;102811.66;;;5.08;91.64
5126;BME280;63008;53.112;8.896;2022-12-01T06:31:37;102812.25;;;5.10;91.47
5126;BME280;63008;53.112;8.896;2022-12-01T06:33:38;102812.34;;;5.15;91.54
5126;BME280;63008;53.112;8.896;2022-12-01T06:35:39;102813.66;;;5.12;91.48
5126;BME280;63008;53.112;8.896;2022-12-01T06:37:40;102816.66;;;5.11;91.64
5126;BME280;63008;53.112;8.896;2022-12-01T06:39:41;102812.84;;;5.12;91.69
5126;BME280;63008;53.112;8.896;2022-12-01T06:41:42;102817.13;;;5.08;91.97
5126;BME280;63008;53.112;8.896;2022-12-01T06:43:43;102814.00;;;5.16;92.34
5126;BME280;63008;53.112;8.896;2022-12-01T06:45:44;102817.63;;;5.21;91.58
5126;BME280;63008;53.112;8.896;2022-12-01T06:47:45;102827.59;;;5.16;91.63
5126;BME280;63008;53.112;8.896;2022-12-01T06:49:48;102824.72;;;5.22;91.43
5126;BME280;63008;53.112;8.896;2022-12-01T06:51:49;102826.69;;;5.27;91.45
5126;BME280;63008;53.112;8.896;2022-12-01T06:53:53;102831.72;;;5.34;90.73
5126;BME280;63008;53.112;8.896;2022-12-01T06:56:02;102831.72;;;5.34;90.52
5126;BME280;63008;53.112;8.896;2022-12-01T06:58:04;102831.81;;;5.39;89.65
5126;BME280;63008;53.112;8.896;2022-12-01T07:00:06;102826.63;;;5.38;89.39
5126;BME280;63008;53.112;8.896;2022-12-01T07:02:11;102834.78;;;5.38;89.09
5126;BME280;63008;53.112;8.896;2022-12-01T07:04:12;102837.41;;;5.33;89.13
5126;BME280;63008;53.112;8.896;2022-12-01T07:06:14;102834.69;;;5.33;89.25
5126;BME280;63008;53.112;8.896;2022-12-01T07:08:15;102835.59;;;5.38;89.15
5126;BME280;63008;53.112;8.896;2022-12-01T07:10:16;102834.28;;;5.25;88.40
5126;BME280;63008;53.112;8.896;2022-12-01T07:12:17;102844.19;;;5.31;88.46
5126;BME280;63008;53.112;8.896;2022-12-01T07:14:21;102846.25;;;5.40;87.96
5126;BME280;63008;53.112;8.896;2022-12-01T07:16:23;102844.34;;;5.24;87.93
5126;BME280;63008;53.112;8.896;2022-12-01T07:18:24;102840.72;;;5.19;88.07
5126;BME280;63008;53.112;8.896;2022-12-01T07:20:25;102842.59;;;5.18;88.47
5126;BME280;63008;53.112;8.896;2022-12-01T07:22:27;102844.00;;;5.21;88.35
5126;BME280;63008;53.112;8.896;2022-12-01T07:24:29;102852.75;;;5.06;88.28
5126;BME280;63008;53.112;8.896;2022-12-01T07:26:30;102850.59;;;5.08;88.66
5126;BME280;63008;53.112;8.896;2022-12-01T07:28:31;102856.47;;;5.17;88.58
5126;BME280;63008;53.112;8.896;2022-12-01T07:30:32;102857.19;;;5.12;88.72
5126;BME280;63008;53.112;8.896;2022-12-01T07:32:33;102857.03;;;5.19;88.45
5126;BME280;63008;53.112;8.896;2022-12-01T07:34:34;102855.06;;;5.14;88.46
5126;BME280;63008;53.112;8.896;2022-12-01T07:36:35;102864.28;;;5.13;88.30
5126;BME280;63008;53.112;8.896;2022-12-01T07:38:37;102854.75;;;5.11;87.97
5126;BME280;63008;53.112;8.896;2022-12-01T07:40:38;102860.56;;;5.19;88.14
5126;BME280;63008;53.112;8.896;2022-12-01T07:42:42;102863.06;;;5.04;88.66
5126;BME280;63008;53.112;8.896;2022-12-01T07:44:43;102867.09;;;5.02;88.52
5126;BME280;63008;53.112;8.896;2022-12-01T07:46:44;102868.44;;;5.16;88.11
5126;BME280;63008;53.112;8.896;2022-12-01T07:48:45;102868.16;;;5.01;88.68
5126;BME280;63008;53.112;8.896;2022-12-01T07:50:46;102864.38;;;5.02;88.84
5126;BME280;63008;53.112;8.896;2022-12-01T07:52:50;102864.94;;;5.04;89.01
5126;BME280;63008;53.112;8.896;2022-12-01T07:54:51;102869.16;;;5.11;88.60
5126;BME280;63008;53.112;8.896;2022-12-01T07:56:52;102870.66;;;5.19;88.38
5126;BME280;63008;53.112;8.896;2022-12-01T07:58:54;102859.13;;;5.28;87.99
5126;BME280;63008;53.112;8.896;2022-12-01T08:00:55;102861.91;;;5.33;87.64
5126;BME280;63008;53.112;8.896;2022-12-01T08:02:56;102863.63;;;5.23;87.59
5126;BME280;63008;53.112;8.896;2022-12-01T08:04:57;102866.34;;;5.23;87.55
5126;BME280;63008;53.112;8.896;2022-12-01T08:06:58;102868.09;;;5.12;86.92
5126;BME280;63008;53.112;8.896;2022-12-01T08:08:58;102866.44;;;5.11;86.86
5126;BME280;63008;53.112;8.896;2022-12-01T08:11:05;102869.06;;;5.06;86.77
5126;BME280;63008;53.112;8.896;2022-12-01T08:13:07;102862.13;;;4.99;87.02
5126;BME280;63008;53.112;8.896;2022-12-01T08:15:08;102874.66;;;5.00;86.80
5126;BME280;63008;53.112;8.896;2022-12-01T08:17:09;102867.09;;;5.02;86.91
5126;BME280;63008;53.112;8.896;2022-12-01T08:19:11;102875.19;;;5.13;86.73
5126;BME280;63008;53.112;8.896;2022-12-01T08:21:15;102880.22;;;5.21;86.15
5126;BME280;63008;53.112;8.896;2022-12-01T08:23:16;102878.97;;;5.12;86.10
5126;BME280;63008;53.112;8.896;2022-12-01T08:25:17;102881.25;;;5.04;86.32
5126;BME280;63008;53.112;8.896;2022-12-01T08:27:18;102885.25;;;5.13;86.35
5126;BME280;63008;53.112;8.896;2022-12-01T08:29:19;102881.69;;;5.12;86.16
5126;BME280;63008;53.112;8.896;2022-12-01T08:31:31;102884.91;;;5.09;86.38
5126;BME280;63008;53.112;8.896;2022-12-01T08:33:32;102882.56;;;5.01;86.56
5126;BME280;63008;53.112;8.896;2022-12-01T08:35:35;102887.69;;;4.98;86.98
5126;BME280;63008;53.112;8.896;2022-12-01T08:37:36;102889.84;;;5.12;86.55
5126;BME280;63008;53.112;8.896;2022-12-01T08:39:37;102886.13;;;5.18;86.34
5126;BME280;63008;53.112;8.896;2022-12-01T08:41:38;102887.06;;;5.24;86.00
5126;BME280;63008;53.112;8.896;2022-12-01T08:43:39;102892.50;;;5.24;86.52
5126;BME280;63008;53.112;8.896;2022-12-01T08:45:42;102890.50;;;5.19;85.83
5126;BME280;63008;53.112;8.896;2022-12-01T08:47:43;102895.16;;;5.19;86.37
5126;BME280;63008;53.112;8.896;2022-12-01T08:49:44;102897.78;;;5.30;86.19
5126;BME280;63008;53.112;8.896;2022-12-01T08:51:45;102896.44;;;5.16;86.05
5126;BME280;63008;53.112;8.896;2022-12-01T08:53:48;102892.06;;;5.15;86.19
5126;BME280;63008;53.112;8.896;2022-12-01T08:55:49;102903.38;;;5.07;86.18
5126;BME280;63008;53.112;8.896;2022-12-01T08:57:50;102899.25;;;5.05;86.17
5126;BME280;63008;53.112;8.896;2022-12-01T08:59:51;102904.69;;;5.05;86.38
5126;BME280;63008;53.112;8.896;2022-12-01T09:01:52;102897.72;;;4.97;86.20
5126;BME280;63008;53.112;8.896;2022-12-01T09:03:55;102905.72;;;4.87;86.61
5126;BME280;63008;53.112;8.896;2022-12-01T09:06:13;102906.63;;;4.93;86.63
5126;BME280;63008;53.112;8.896;2022-12-01T09:08:14;102896.44;;;5.00;86.87
5126;BME280;63008;53.112;8.896;2022-12-01T09:10:30;102904.81;;;4.98;86.33
5126;BME280;63008;53.112;8.896;2022-12-01T09:12:31;102901.38;;;5.03;87.00
5126;BME280;63008;53.112;8.896;2022-12-01T09:14:36;102911.34;;;4.97;86.06
5126;BME280;63008;53.112;8.896;2022-12-01T09:16:38;102908.47;;;5.04;86.63
5126;BME280;63008;53.112;8.896;2022-12-01T09:18:40;102910.66;;;4.90;86.40
5126;BME280;63008;53.112;8.896;2022-12-01T09:20:41;102923.91;;;4.87;86.36
5126;BME280;63008;53.112;8.896;2022-12-01T09:22:42;102919.50;;;4.97;86.73
5126;BME280;63008;53.112;8.896;2022-12-01T09:24:43;102924.44;;;5.00;86.21
5126;BME280;63008;53.112;8.896;2022-12-01T09:26:44;102919.34;;;5.04;86.05
5126;BME280;63008;53.112;8.896;2022-12-01T09:28:47;102922.47;;;4.96;86.16
5126;BME280;63008;53.112;8.896;2022-12-01T09:30:48;102927.28;;;4.77;86.39
5126;BME280;63008;53.112;8.896;2022-12-01T09:32:49;102922.47;;;4.96;85.95
5126;BME280;63008;53.112;8.896;2022-12-01T09:34:50;102932.44;;;4.90;85.83
5126;BME280;63008;53.112;8.896;2022-12-01T09:36:54;102931.84;;;4.88;86.00
5126;BME280;63008;53.112;8.896;2022-12-01T09:38:56;102933.09;;;4.97;86.84
5126;BME280;63008;53.112;8.896;2022-12-01T09:41:12;102929.00;;;4.95;86.64
5126;BME280;63008;53.112;8.896;2022-12-01T09:43:19;102928.78;;;5.13;86.05
5126;BME280;63008;53.112;8.896;2022-12-01T09:45:27;102927.28;;;5.05;85.81
5126;BME280;63008;53.112;8.896;2022-12-01T09:47:35;102925.06;;;5.02;86.98
5126;BME280;63008;53.112;8.896;2022-12-01T09:51:37;102913.53;;;5.12;86.74
5126;BME280;63008;53.112;8.896;2022-12-01T09:53:40;102922.13;;;5.20;86.14
5126;BME280;63008;53.112;8.896;2022-12-01T09:55:41;102914.69;;;5.16;86.21
5126;BME280;63008;53.112;8.896;2022-12-01T09:57:49;102914.34;;;5.12;86.71
5126;BME280;63008;53.112;8.896;2022-12-01T09:59:51;102903.66;;;5.22;85.98
5126;BME280;63008;53.112;8.896;2022-12-01T10:01:54;102902.59;;;5.23;85.36
5126;BME280;63008;53.112;8.896;2022-12-01T10:04:05;102900.34;;;5.20;85.10
5126;BME280;63008;53.112;8.896;2022-12-01T10:06:12;102899.38;;;5.26;85.29
5126;BME280;63008;53.112;8.896;2022-12-01T10:08:18;102901.81;;;5.11;85.91
5126;BME280;63008;53.112;8.896;2022-12-01T10:10:30;102907.47;;;4.93;86.19
5126;BME280;63008;53.112;8.896;2022-12-01T10:12:34;102913.44;;;4.79;86.73
5126;BME280;63008;53.112;8.896;2022-12-01T10:14:35;102911.47;;;4.91;86.92
5126;BME280;63008;53.112;8.896;2022-12-01T10:16:44;102910.84;;;5.00;86.40
5126;BME280;63008;53.112;8.896;2022-12-01T10:19:10;102907.69;;;5.20;85.40
5126;BME280;63008;53.112;8.896;2022-12-01T10:21:30;102909.81;;;5.18;85.57
5126;BME280;63008;53.112;8.896;2022-12-01T10:23:48;102905.31;;;5.23;85.05
5126;BME280;63008;53.112;8.896;2022-12-01T10:25:59;102902.72;;;5.17;84.77
5126;BME280;63008;53.112;8.896;2022-12-01T10:30:48;102899.66;;;5.13;85.64
5126;BME280;63008;53.112;8.896;2022-12-01T10:33:01;102893.50;;;5.18;85.24
5126;BME280;63008;53.112;8.896;2022-12-01T10:35:11;102892.44;;;5.19;85.33
5126;BME280;63008;53.112;8.896;2022-12-01T10:37:17;102906.81;;;5.31;84.62
5126;BME280;63008;53.112;8.896;2022-12-01T10:39:40;102901.19;;;5.37;84.46
5126;BME280;63008;53.112;8.896;2022-12-01T10:41:43;102900.78;;;5.29;84.26
5126;BME280;63008;53.112;8.896;2022-12-01T10:43:49;102896.72;;;5.15;84.79
5126;BME280;63008;53.112;8.896;2022-12-01T10:45:52;102899.09;;;5.11;84.12
5126;BME280;63008;53.112;8.896;2022-12-01T10:48:18;102894.16;;;5.25;84.49
5126;BME280;63008;53.112;8.896;2022-12-01T10:50:26;102889.41;;;5.32;84.63
5126;BME280;63008;53.112;8.896;2022-12-01T10:52:40;102887.47;;;5.16;84.11
5126;BME280;63008;53.112;8.896;2022-12-01T10:54:41;102894.94;;;5.09;84.15
5126;BME280;63008;53.112;8.896;2022-12-01T10:56:45;102895.44;;;5.06;84.65
5126;BME280;63008;53.112;8.896;2022-12-01T10:58:50;102889.84;;;5.12;84.90
5126;BME280;63008;53.112;8.896;2022-12-01T11:00:59;102885.41;;;5.06;84.34
5126;BME280;63008;53.112;8.896;2022-12-01T11:03:01;102887.81;;;5.35;83.97
5126;BME280;63008;53.112;8.896;2022-12-01T11:05:19;102892.84;;;5.27;83.65
5126;BME280;63008;53.112;8.896;2022-12-01T11:07:26;102885.59;;;5.32;83.29
5126;BME280;63008;53.112;8.896;2022-12-01T11:09:28;102887.16;;;5.29;83.10
5126;BME280;63008;53.112;8.896;2022-12-01T11:11:36;102884.94;;;5.42;82.65
5126;BME280;63008;53.112;8.896;2022-12-01T11:13:40;102885.59;;;5.49;82.13
5126;BME280;63008;53.112;8.896;2022-12-01T11:15:59;102887.31;;;5.38;81.44
5126;BME280;63008;53.112;8.896;2022-12-01T11:18:02;102885.84;;;5.47;82.34
5126;BME280;63008;53.112;8.896;2022-12-01T11:22:29;102877.94;;;5.79;80.80
5126;BME280;63008;53.112;8.896;2022-12-01T11:26:56;102877.16;;;5.67;81.75
5126;BME280;63008;53.112;8.896;2022-12-01T11:31:03;102878.00;;;5.51;81.97
5126;BME280;63008;53.112;8.896;2022-12-01T11:33:04;102874.03;;;5.58;81.61
5126;BME280;63008;53.112;8.896;2022-12-01T11:35:18;102883.13;;;5.64;81.03
5126;BME280;63008;53.112;8.896;2022-12-01T11:37:22;102875.94;;;5.41;81.62
5126;BME280;63008;53.112;8.896;2022-12-01T11:39:29;102880.41;;;5.64;81.23
5126;BME280;63008;53.112;8.896;2022-12-01T11:41:36;102878.06;;;5.72;81.25
5126;BME280;63008;53.112;8.896;2022-12-01T11:43:37;102874.72;;;5.82;80.67